Anamoose, North Dakota
Current Conditions -  °F | °C
As of 2:35 PM on Friday 21 Nov 2014 (Local Time) from K5H4 Reporting Station
Clear Clear  
Wind Chill: 39°   Ceiling: Unl
Heat Index: 46°   Visibility: 10mi
Dew Point: 30°   Wind: 21mph
Humidity: 53%   Direction: 220°SW
Pressure: 29.58"   Gusts: 24mph
Location:  47.88°N, 100.24°W
Report Text: K5H4 212035Z AUTO 22018G21KT 10SM CLR 08/M01 A2958 RMK AO2
Loading
Personal Weather Stations






























Interactive Weather Map New forecast layout! Learn more

10-Day Weather Forecast

Advertisements
Track Severe Weather on mobile